createdAt,value
2023-05-12T00:01:57.461Z,11.05
2023-05-12T00:04:24.982Z,11.01
2023-05-12T00:06:52.715Z,10.90
2023-05-12T00:09:20.201Z,10.96
2023-05-12T00:11:48.569Z,10.89
2023-05-12T00:14:16.394Z,10.79
2023-05-12T00:16:44.383Z,10.79
2023-05-12T00:19:12.162Z,10.79
2023-05-12T00:21:41.607Z,10.73
2023-05-12T00:24:09.306Z,10.59
2023-05-12T00:26:37.045Z,10.70
2023-05-12T00:29:04.651Z,10.72
2023-05-12T00:31:33.392Z,10.68
2023-05-12T00:34:00.917Z,10.65
2023-05-12T00:36:28.574Z,10.69
2023-05-12T00:38:56.435Z,10.72
2023-05-12T00:41:24.524Z,10.68
2023-05-12T00:43:52.523Z,10.61
2023-05-12T00:46:20.903Z,10.64
2023-05-12T00:48:49.598Z,10.61
2023-05-12T00:51:17.467Z,10.64
2023-05-12T00:53:49.800Z,10.67
2023-05-12T00:56:19.208Z,10.61
2023-05-12T00:58:47.444Z,10.52
2023-05-12T01:01:16.701Z,10.52
2023-05-12T01:03:46.324Z,10.54
2023-05-12T01:06:19.992Z,10.42
2023-05-12T01:08:47.780Z,10.44
2023-05-12T01:11:16.287Z,10.50
2023-05-12T01:13:44.182Z,10.55
2023-05-12T01:16:15.470Z,10.53
2023-05-12T01:18:50.145Z,10.47
2023-05-12T01:21:20.459Z,10.52
2023-05-12T01:23:58.341Z,10.51
2023-05-12T01:26:29.975Z,10.43
2023-05-12T01:28:57.995Z,10.43
2023-05-12T01:31:27.754Z,10.42
2023-05-12T01:33:55.698Z,10.40
2023-05-12T01:36:24.420Z,10.29
2023-05-12T01:38:52.192Z,10.32
2023-05-12T01:41:19.655Z,10.33
2023-05-12T01:43:47.249Z,10.26
2023-05-12T01:46:15.921Z,10.29
2023-05-12T01:48:44.133Z,10.28
2023-05-12T01:51:11.667Z,10.23
2023-05-12T01:53:39.157Z,10.19
2023-05-12T01:56:06.891Z,10.22
2023-05-12T01:58:35.817Z,10.23
2023-05-12T02:01:03.658Z,10.18
2023-05-12T02:03:31.358Z,10.14
2023-05-12T02:05:58.930Z,10.28
2023-05-12T02:08:26.579Z,10.19
2023-05-12T02:11:09.775Z,10.04
2023-05-12T02:13:38.472Z,10.10
2023-05-12T02:16:07.130Z,10.09
2023-05-12T02:18:34.790Z,9.99
2023-05-12T02:21:02.697Z,9.93
2023-05-12T02:23:31.383Z,10.01
2023-05-12T02:25:58.939Z,10.07
2023-05-12T02:28:26.651Z,10.07
2023-05-12T02:30:54.490Z,10.02
2023-05-12T02:33:25.218Z,10.04
2023-05-12T02:35:52.761Z,10.05
2023-05-12T02:38:20.708Z,9.98
2023-05-12T02:40:49.382Z,10.03
2023-05-12T02:43:16.947Z,10.05
2023-05-12T02:45:44.646Z,9.96
2023-05-12T02:48:12.113Z,9.94
2023-05-12T02:50:39.602Z,10.03
2023-05-12T02:53:07.137Z,10.07
2023-05-12T02:55:35.429Z,10.01
2023-05-12T02:58:02.971Z,10.01
2023-05-12T03:00:30.559Z,10.10
2023-05-12T03:02:58.287Z,10.21
2023-05-12T03:05:26.172Z,10.23
2023-05-12T03:07:53.857Z,10.28
2023-05-12T03:10:21.697Z,10.27
2023-05-12T03:12:49.361Z,10.27
2023-05-12T03:15:17.582Z,10.27
2023-05-12T03:17:45.289Z,10.25
2023-05-12T03:20:13.063Z,10.31
2023-05-12T03:22:40.728Z,10.35
2023-05-12T03:25:10.450Z,10.39
2023-05-12T03:27:37.988Z,10.43
2023-05-12T03:30:06.159Z,10.40
2023-05-12T03:32:39.279Z,10.39
2023-05-12T03:35:09.663Z,10.47
2023-05-12T03:37:37.710Z,10.51
2023-05-12T03:40:06.415Z,10.56
2023-05-12T03:42:34.036Z,10.64
2023-05-12T03:45:01.681Z,10.70
2023-05-12T03:47:29.461Z,10.70
2023-05-12T03:49:58.432Z,10.76
2023-05-12T03:52:26.036Z,10.79
2023-05-12T03:54:53.630Z,10.84
2023-05-12T03:57:21.175Z,10.86
2023-05-12T03:59:48.620Z,10.92
2023-05-12T04:02:16.484Z,10.91
2023-05-12T04:04:43.973Z,10.99
2023-05-12T04:07:11.650Z,11.00
2023-05-12T04:09:39.491Z,11.05
2023-05-12T04:12:07.242Z,11.12
2023-05-12T04:14:42.108Z,11.14
2023-05-12T04:17:11.100Z,11.24
2023-05-12T04:19:38.751Z,11.28
2023-05-12T04:22:06.482Z,11.31
2023-05-12T04:24:34.032Z,11.30
2023-05-12T04:27:01.891Z,11.30
2023-05-12T04:29:30.060Z,11.29
2023-05-12T04:31:57.758Z,11.31
2023-05-12T04:34:25.868Z,11.37
2023-05-12T04:36:53.575Z,11.40
2023-05-12T04:39:21.375Z,11.46
2023-05-12T04:41:49.302Z,11.55
2023-05-12T04:44:16.862Z,11.58
2023-05-12T04:46:45.106Z,11.62
2023-05-12T04:49:12.652Z,11.54
2023-05-12T04:51:43.015Z,11.57
2023-05-12T04:54:11.202Z,11.60
2023-05-12T04:56:39.034Z,11.73
2023-05-12T04:59:07.684Z,11.77
2023-05-12T05:01:35.572Z,11.79
2023-05-12T05:04:03.305Z,11.86
2023-05-12T05:06:31.845Z,11.89
2023-05-12T05:09:00.537Z,11.90
2023-05-12T05:11:28.181Z,11.94
2023-05-12T05:13:55.823Z,11.93
2023-05-12T05:16:24.306Z,11.94
2023-05-12T05:18:52.864Z,12.05
2023-05-12T05:21:21.017Z,12.11
2023-05-12T05:23:48.804Z,12.23
2023-05-12T05:26:17.096Z,12.27
2023-05-12T05:28:44.595Z,12.30
2023-05-12T05:31:18.737Z,12.39
2023-05-12T05:33:48.138Z,12.40
2023-05-12T05:36:16.572Z,12.46
2023-05-12T05:38:44.073Z,12.56
2023-05-12T05:41:11.612Z,12.63
2023-05-12T05:43:39.225Z,12.70
2023-05-12T05:46:08.101Z,12.76
2023-05-12T05:48:36.745Z,12.80
2023-05-12T05:51:05.200Z,12.93
2023-05-12T05:53:33.622Z,13.01
2023-05-12T05:56:01.468Z,13.09
2023-05-12T05:58:29.247Z,13.19
2023-05-12T06:00:56.772Z,13.24
2023-05-12T06:03:24.352Z,13.27
2023-05-12T06:05:52.226Z,13.34
2023-05-12T06:08:19.925Z,13.45
2023-05-12T06:10:48.314Z,13.48
2023-05-12T06:13:17.671Z,13.58
2023-05-12T06:15:45.282Z,13.67
2023-05-12T06:18:13.120Z,13.79
2023-05-12T06:20:41.227Z,13.80
2023-05-12T06:23:09.046Z,13.87
2023-05-12T06:25:36.770Z,14.01
2023-05-12T06:28:04.310Z,14.05
2023-05-12T06:30:31.885Z,14.18
2023-05-12T06:32:59.783Z,14.28
2023-05-12T06:35:28.708Z,14.29
2023-05-12T06:37:56.408Z,14.44
2023-05-12T06:40:24.048Z,14.59
2023-05-12T06:42:51.572Z,14.66
2023-05-12T06:45:23.624Z,14.69
2023-05-12T06:47:52.301Z,14.81
2023-05-12T06:50:20.118Z,14.85
2023-05-12T06:52:53.552Z,14.90
2023-05-12T06:55:22.247Z,15.03
2023-05-12T06:57:55.555Z,15.19
2023-05-12T07:00:24.756Z,15.34
2023-05-12T07:02:53.517Z,15.38
2023-05-12T07:05:21.801Z,15.53
2023-05-12T07:07:49.684Z,15.66
2023-05-12T07:10:17.759Z,15.82
2023-05-12T07:12:45.737Z,15.92
2023-05-12T07:15:13.232Z,16.02
2023-05-12T07:17:41.307Z,16.14
2023-05-12T07:20:09.973Z,16.40
2023-05-12T07:22:38.984Z,16.53
2023-05-12T07:25:08.160Z,16.68
2023-05-12T07:27:35.992Z,16.87
2023-05-12T07:30:04.233Z,17.04
2023-05-12T07:32:33.981Z,16.95
2023-05-12T07:35:01.576Z,17.03
2023-05-12T07:37:30.608Z,17.17
2023-05-12T07:39:58.223Z,17.07
2023-05-12T07:42:25.777Z,17.16
2023-05-12T07:44:53.238Z,17.38
2023-05-12T07:47:20.729Z,17.52
2023-05-12T07:49:48.862Z,17.57
2023-05-12T07:52:16.434Z,17.64
2023-05-12T07:54:44.047Z,17.57
2023-05-12T07:57:11.747Z,17.65
2023-05-12T07:59:39.295Z,17.68
2023-05-12T08:02:07.506Z,17.90
2023-05-12T08:04:35.519Z,18.02
2023-05-12T08:07:03.204Z,17.99
2023-05-12T08:09:30.675Z,17.86
2023-05-12T08:11:58.183Z,18.04
2023-05-12T08:14:25.908Z,18.22
2023-05-12T08:16:53.492Z,18.13
2023-05-12T08:19:21.096Z,18.08
2023-05-12T08:21:48.556Z,18.03
2023-05-12T08:24:16.085Z,18.27
2023-05-12T08:26:43.586Z,18.47
2023-05-12T08:29:11.582Z,18.51
2023-05-12T08:31:39.344Z,18.80
2023-05-12T08:34:10.937Z,18.92
2023-05-12T08:36:40.233Z,18.96
2023-05-12T08:39:11.274Z,19.14
2023-05-12T08:41:58.512Z,18.80
2023-05-12T08:44:26.688Z,18.88
2023-05-12T08:46:57.450Z,19.10
2023-05-12T08:49:29.550Z,19.19
2023-05-12T08:51:59.542Z,19.29
2023-05-12T08:54:28.365Z,18.92
2023-05-12T08:59:27.690Z,19.53
2023-05-12T09:01:55.540Z,19.61
2023-05-12T09:04:23.207Z,19.38
2023-05-12T09:06:53.114Z,19.40
2023-05-12T09:09:22.311Z,19.55
2023-05-12T09:11:56.465Z,19.53
2023-05-12T09:14:26.182Z,19.47
2023-05-12T09:17:01.804Z,19.81
2023-05-12T09:19:29.757Z,20.10
2023-05-12T09:21:58.613Z,19.95
2023-05-12T09:24:37.539Z,19.53
2023-05-12T09:27:05.846Z,19.25
2023-05-12T09:29:37.428Z,19.32
2023-05-12T09:32:09.798Z,19.51
2023-05-12T09:34:41.101Z,19.85
2023-05-12T09:37:09.139Z,20.33
2023-05-12T09:39:37.024Z,20.59
2023-05-12T09:42:10.327Z,20.35
2023-05-12T09:44:39.343Z,20.14
2023-05-12T09:47:08.057Z,20.17
2023-05-12T09:49:35.804Z,20.25
2023-05-12T09:52:05.031Z,19.86
2023-05-12T09:54:34.414Z,19.36
2023-05-12T09:57:05.258Z,19.15
2023-05-12T09:59:38.984Z,18.95
2023-05-12T10:02:09.519Z,19.07
2023-05-12T10:04:49.469Z,19.55
2023-05-12T10:07:18.623Z,19.85
2023-05-12T10:09:49.047Z,19.75
2023-05-12T10:12:17.208Z,19.95
2023-05-12T10:14:45.738Z,19.73
2023-05-12T10:17:15.242Z,19.48
2023-05-12T10:19:46.880Z,19.36
2023-05-12T10:22:16.237Z,19.28
2023-05-12T10:24:45.783Z,19.20
2023-05-12T10:27:16.032Z,19.20
2023-05-12T10:29:44.743Z,19.60
2023-05-12T10:32:12.407Z,19.71
2023-05-12T10:34:42.129Z,20.10
2023-05-12T10:37:11.543Z,20.19
2023-05-12T10:39:52.940Z,20.16
2023-05-12T10:42:25.911Z,20.23
2023-05-12T10:44:56.338Z,19.99
2023-05-12T10:47:36.986Z,20.55
2023-05-12T10:50:05.631Z,20.85
2023-05-12T10:52:33.763Z,20.97
2023-05-12T10:55:02.802Z,20.73
2023-05-12T10:57:33.460Z,20.72
2023-05-12T11:00:03.564Z,20.75
2023-05-12T11:02:34.949Z,20.64
2023-05-12T11:05:12.935Z,20.49
2023-05-12T11:10:15.224Z,19.93
2023-05-12T11:12:44.618Z,19.85
2023-05-12T11:15:12.842Z,19.80
2023-05-12T11:17:41.061Z,20.06
2023-05-12T11:20:12.053Z,20.27
2023-05-12T11:22:41.260Z,20.43
2023-05-12T11:25:10.810Z,20.44
2023-05-12T11:27:44.836Z,20.47
2023-05-12T11:30:12.753Z,20.65
2023-05-12T11:32:41.181Z,20.58
2023-05-12T11:35:09.952Z,20.64
2023-05-12T11:37:39.569Z,20.74
2023-05-12T11:40:27.481Z,20.88
2023-05-12T11:42:56.294Z,20.89
2023-05-12T11:45:29.358Z,21.16
2023-05-12T11:48:11.597Z,20.98
2023-05-12T11:50:48.776Z,20.68
2023-05-12T11:53:19.125Z,20.20
2023-05-12T11:55:51.774Z,20.05
2023-05-12T11:58:22.091Z,19.85
2023-05-12T12:00:49.832Z,19.81
2023-05-12T12:03:18.055Z,19.78
2023-05-12T12:05:58.154Z,19.73
2023-05-12T12:08:25.836Z,20.09
2023-05-12T12:10:53.746Z,20.53
2023-05-12T12:13:23.954Z,20.80
2023-05-12T12:15:51.970Z,21.09
2023-05-12T12:18:19.537Z,21.46
2023-05-12T12:20:47.645Z,21.45
2023-05-12T12:23:15.272Z,21.29
2023-05-12T12:25:43.725Z,21.64
2023-05-12T12:28:11.252Z,21.83
2023-05-12T12:30:38.906Z,21.72
2023-05-12T12:33:06.454Z,21.68
2023-05-12T12:35:35.202Z,21.72
2023-05-12T12:38:02.664Z,21.79
2023-05-12T12:40:30.931Z,21.67
2023-05-12T12:42:58.421Z,21.30
2023-05-12T12:45:26.646Z,21.28
2023-05-12T12:47:55.037Z,21.34
2023-05-12T12:50:25.050Z,21.25
2023-05-12T12:52:53.501Z,21.23
2023-05-12T12:55:21.274Z,21.47
2023-05-12T12:57:49.007Z,21.50
2023-05-12T13:00:17.474Z,21.47
2023-05-12T13:02:45.710Z,21.34
2023-05-12T13:05:13.317Z,21.17
2023-05-12T13:07:41.282Z,21.14
2023-05-12T13:10:10.046Z,20.90
2023-05-12T13:12:37.915Z,20.77
2023-05-12T13:15:07.313Z,20.75
2023-05-12T13:17:35.046Z,21.06
2023-05-12T13:20:03.896Z,21.25
2023-05-12T13:22:31.833Z,21.49
2023-05-12T13:24:59.316Z,21.53
2023-05-12T13:27:26.853Z,21.52
2023-05-12T13:29:54.459Z,21.68
2023-05-12T13:32:22.112Z,21.69
2023-05-12T13:34:49.663Z,21.39
2023-05-12T13:37:17.108Z,20.99
2023-05-12T13:39:44.582Z,20.91
2023-05-12T13:42:12.331Z,21.20
2023-05-12T13:44:39.859Z,21.39
2023-05-12T13:47:10.440Z,21.52
2023-05-12T13:49:38.097Z,21.59
2023-05-12T13:52:06.191Z,22.03
2023-05-12T13:54:33.830Z,21.71
2023-05-12T13:57:03.969Z,21.90
2023-05-12T13:59:31.958Z,21.98
2023-05-12T14:01:59.796Z,22.03
2023-05-12T14:04:27.455Z,22.20
2023-05-12T14:06:55.535Z,22.50
2023-05-12T14:09:23.365Z,22.49
2023-05-12T14:11:51.083Z,21.99
2023-05-12T14:14:18.649Z,22.19
2023-05-12T14:16:46.523Z,22.02
2023-05-12T14:19:14.149Z,21.81
2023-05-12T14:21:42.143Z,21.56
2023-05-12T14:24:10.123Z,21.58
2023-05-12T14:26:37.588Z,21.68
2023-05-12T14:29:06.508Z,21.85
2023-05-12T14:31:36.046Z,21.96
2023-05-12T14:34:04.389Z,21.63
2023-05-12T14:36:32.323Z,21.58
2023-05-12T14:38:59.869Z,21.52
2023-05-12T14:41:27.429Z,21.56
2023-05-12T14:43:54.980Z,21.44
2023-05-12T14:46:22.692Z,21.29
2023-05-12T14:48:50.385Z,21.01
2023-05-12T14:51:17.932Z,20.94
2023-05-12T14:53:45.417Z,20.59
2023-05-12T14:56:13.065Z,20.57
2023-05-12T14:58:40.686Z,20.48
2023-05-12T15:01:09.445Z,20.29
2023-05-12T15:03:37.367Z,20.23
2023-05-12T15:06:07.884Z,20.21
2023-05-12T15:08:35.987Z,20.41
2023-05-12T15:11:03.355Z,21.07
2023-05-12T15:13:31.687Z,21.21
2023-05-12T15:15:59.375Z,21.22
2023-05-12T15:18:26.963Z,21.03
2023-05-12T15:20:54.744Z,20.59
2023-05-12T15:23:22.596Z,20.40
2023-05-12T15:25:50.253Z,20.26
2023-05-12T15:28:17.830Z,20.25
2023-05-12T15:30:45.652Z,20.17
2023-05-12T15:33:13.336Z,20.83
2023-05-12T15:35:41.710Z,21.80
2023-05-12T15:38:09.401Z,22.24
2023-05-12T15:40:37.428Z,23.14
2023-05-12T15:43:05.276Z,23.21
2023-05-12T15:45:32.760Z,23.44
2023-05-12T15:48:00.674Z,23.53
2023-05-12T15:50:28.218Z,23.44
2023-05-12T15:52:55.861Z,22.88
2023-05-12T15:55:23.876Z,22.52
2023-05-12T15:57:53.616Z,22.13
2023-05-12T16:00:22.693Z,21.73
2023-05-12T16:02:50.522Z,21.26
2023-05-12T16:05:18.301Z,20.97
2023-05-12T16:07:48.056Z,20.68
2023-05-12T16:10:16.005Z,20.31
2023-05-12T16:12:45.920Z,20.14
2023-05-12T16:15:14.086Z,20.02
2023-05-12T16:17:41.952Z,19.92
2023-05-12T16:20:10.453Z,19.86
2023-05-12T16:22:38.026Z,19.84
2023-05-12T16:25:05.896Z,19.57
2023-05-12T16:27:35.688Z,19.52
2023-05-12T16:30:03.767Z,19.50
2023-05-12T16:32:32.333Z,19.47
2023-05-12T16:35:00.897Z,19.41
2023-05-12T16:37:28.667Z,19.36
2023-05-12T16:39:56.200Z,19.36
2023-05-12T16:42:23.724Z,19.27
2023-05-12T16:44:57.944Z,19.16
2023-05-12T16:47:25.640Z,19.16
2023-05-12T16:49:53.608Z,19.13
2023-05-12T16:52:21.331Z,19.09
2023-05-12T16:54:48.832Z,19.06
2023-05-12T16:57:16.648Z,19.01
2023-05-12T16:59:44.383Z,18.98
2023-05-12T17:02:12.009Z,18.94
2023-05-12T17:04:39.699Z,18.84
2023-05-12T17:07:07.245Z,18.75
2023-05-12T17:09:34.721Z,18.67
2023-05-12T17:12:04.555Z,18.58
2023-05-12T17:14:33.561Z,18.50
2023-05-12T17:17:01.432Z,18.44
2023-05-12T17:19:29.459Z,18.39
2023-05-12T17:21:57.256Z,18.34
2023-05-12T17:24:25.006Z,18.27
2023-05-12T17:26:52.651Z,18.23
2023-05-12T17:29:20.474Z,18.15
2023-05-12T17:31:48.158Z,18.05
2023-05-12T17:34:15.737Z,18.01
2023-05-12T17:36:43.455Z,18.03
2023-05-12T17:39:14.116Z,17.97
2023-05-12T17:41:42.537Z,17.89
2023-05-12T17:44:10.648Z,17.86
2023-05-12T17:46:38.487Z,17.79
2023-05-12T17:49:05.994Z,17.80
2023-05-12T17:51:33.557Z,17.70
2023-05-12T17:54:01.080Z,17.64
2023-05-12T17:56:28.773Z,17.62
2023-05-12T17:58:56.314Z,17.62
2023-05-12T18:01:23.972Z,17.55
2023-05-12T18:03:51.638Z,17.47
2023-05-12T18:06:19.402Z,17.40
2023-05-12T18:08:47.225Z,17.38
2023-05-12T18:11:14.745Z,17.36
2023-05-12T18:13:42.401Z,17.34
2023-05-12T18:16:21.320Z,17.30
2023-05-12T18:18:55.673Z,17.22
2023-05-12T18:21:23.381Z,17.17
2023-05-12T18:23:50.864Z,17.13
2023-05-12T18:26:18.587Z,17.12
2023-05-12T18:28:46.456Z,17.05
2023-05-12T18:31:16.486Z,17.04
2023-05-12T18:33:47.310Z,16.98
2023-05-12T18:36:15.457Z,16.96
2023-05-12T18:38:43.422Z,16.87
2023-05-12T18:41:11.564Z,16.83
2023-05-12T18:43:39.092Z,16.79
2023-05-12T18:46:06.671Z,16.74
2023-05-12T18:48:34.204Z,16.65
2023-05-12T18:51:01.978Z,16.59
2023-05-12T18:53:29.677Z,16.51
2023-05-12T18:55:57.239Z,16.50
2023-05-12T18:58:24.784Z,16.49
2023-05-12T19:00:53.347Z,16.46
2023-05-12T19:03:20.894Z,16.39
2023-05-12T19:05:49.192Z,16.32
2023-05-12T19:08:19.136Z,16.24
2023-05-12T19:10:47.582Z,16.22
2023-05-12T19:13:15.325Z,16.18
2023-05-12T19:15:42.862Z,16.11
2023-05-12T19:18:10.762Z,16.06
2023-05-12T19:20:38.389Z,16.00
2023-05-12T19:23:05.997Z,15.94
2023-05-12T19:25:35.378Z,15.93
2023-05-12T19:28:03.049Z,15.89
2023-05-12T19:30:31.050Z,15.75
2023-05-12T19:32:58.675Z,15.71
2023-05-12T19:35:26.759Z,15.69
2023-05-12T19:37:54.280Z,15.65
2023-05-12T19:40:21.762Z,15.60
2023-05-12T19:42:50.411Z,15.56
2023-05-12T19:45:18.142Z,15.49
2023-05-12T19:47:45.894Z,15.44
2023-05-12T19:50:13.441Z,15.38
2023-05-12T19:52:41.563Z,15.37
2023-05-12T19:55:09.335Z,15.30
2023-05-12T19:57:37.770Z,15.27
2023-05-12T20:00:05.936Z,15.19
2023-05-12T20:02:40.837Z,15.14
2023-05-12T20:05:09.367Z,15.08
2023-05-12T20:07:37.399Z,14.97
2023-05-12T20:10:05.225Z,14.89
2023-05-12T20:12:33.363Z,14.77
2023-05-12T20:15:00.971Z,14.73
2023-05-12T20:17:28.509Z,14.76
2023-05-12T20:19:57.083Z,14.77
2023-05-12T20:22:24.598Z,14.74
2023-05-12T20:24:52.227Z,14.68
2023-05-12T20:27:19.720Z,14.69
2023-05-12T20:29:47.150Z,14.61
2023-05-12T20:32:14.651Z,14.53
2023-05-12T20:34:42.349Z,14.53
2023-05-12T20:37:10.148Z,14.49
2023-05-12T20:39:37.732Z,14.49
2023-05-12T20:42:06.089Z,14.47
2023-05-12T20:44:33.920Z,14.47
2023-05-12T20:47:01.793Z,14.45
2023-05-12T20:49:29.600Z,14.41
2023-05-12T20:51:57.083Z,14.30
2023-05-12T20:54:24.660Z,14.21
2023-05-12T20:56:52.198Z,14.13
2023-05-12T20:59:20.115Z,14.20
2023-05-12T21:01:47.783Z,14.22
2023-05-12T21:04:15.459Z,14.21
2023-05-12T21:06:43.263Z,14.17
2023-05-12T21:09:10.786Z,14.17
2023-05-12T21:11:38.376Z,14.12
2023-05-12T21:14:05.850Z,14.06
2023-05-12T21:16:33.425Z,14.06
2023-05-12T21:19:00.879Z,14.00
2023-05-12T21:21:28.776Z,13.99
2023-05-12T21:23:56.280Z,13.99
2023-05-12T21:26:23.957Z,13.92
2023-05-12T21:28:51.517Z,13.88
2023-05-12T21:31:19.027Z,13.89
2023-05-12T21:33:46.795Z,13.89
2023-05-12T21:36:14.317Z,13.82
2023-05-12T21:38:42.210Z,13.78
2023-05-12T21:41:09.846Z,13.76
2023-05-12T21:43:37.452Z,13.71
2023-05-12T21:46:05.722Z,13.71
2023-05-12T21:48:33.501Z,13.71
2023-05-12T21:51:02.770Z,13.69
2023-05-12T21:53:30.636Z,13.55
2023-05-12T21:55:58.229Z,13.47
2023-05-12T21:58:26.145Z,13.47
2023-05-12T22:00:53.762Z,13.47
2023-05-12T22:03:22.156Z,13.40
2023-05-12T22:05:50.095Z,13.31
2023-05-12T22:08:18.627Z,13.29
2023-05-12T22:10:47.437Z,13.25
2023-05-12T22:13:15.262Z,13.27
2023-05-12T22:15:43.280Z,13.30
2023-05-12T22:18:10.955Z,13.06
2023-05-12T22:20:38.626Z,12.80
2023-05-12T22:23:06.336Z,12.64
2023-05-12T22:25:33.801Z,12.59
2023-05-12T22:28:01.230Z,12.49
2023-05-12T22:30:28.936Z,12.66
2023-05-12T22:32:56.761Z,12.70
2023-05-12T22:35:24.318Z,12.61
2023-05-12T22:37:52.090Z,12.43
2023-05-12T22:40:23.102Z,12.52
2023-05-12T22:42:51.029Z,12.51
2023-05-12T22:45:18.601Z,12.39
2023-05-12T22:47:46.019Z,12.39
2023-05-12T22:50:13.482Z,12.42
2023-05-12T22:52:41.059Z,12.26
2023-05-12T22:55:08.891Z,12.13
2023-05-12T22:57:38.614Z,12.16
2023-05-12T23:00:07.235Z,12.26
2023-05-12T23:02:35.402Z,12.16
2023-05-12T23:05:04.205Z,12.09
2023-05-12T23:07:31.977Z,12.11
2023-05-12T23:09:59.463Z,11.98
2023-05-12T23:12:27.017Z,11.93
2023-05-12T23:14:54.566Z,11.94
2023-05-12T23:17:22.156Z,12.03
2023-05-12T23:19:49.742Z,11.98
2023-05-12T23:22:17.197Z,11.96
2023-05-12T23:24:44.723Z,11.88
2023-05-12T23:27:12.318Z,11.76
2023-05-12T23:29:39.850Z,11.80
2023-05-12T23:32:07.703Z,11.95
2023-05-12T23:34:36.412Z,11.86
2023-05-12T23:37:03.895Z,11.81
2023-05-12T23:39:31.532Z,11.78
2023-05-12T23:41:59.015Z,11.77
2023-05-12T23:44:26.526Z,11.89
2023-05-12T23:46:54.118Z,11.77
2023-05-12T23:49:21.633Z,11.57
2023-05-12T23:51:49.154Z,11.35
2023-05-12T23:54:16.620Z,11.42
2023-05-12T23:56:44.342Z,11.56
2023-05-12T23:59:11.926Z,11.64
